createdAt,value
2019-01-13T00:01:14.605Z,7.03
2019-01-13T00:03:44.924Z,4.73
2019-01-13T00:06:15.219Z,6.60
2019-01-13T00:08:45.968Z,4.60
2019-01-13T00:11:16.431Z,5.47
2019-01-13T00:13:46.998Z,5.60
2019-01-13T00:16:17.756Z,7.07
2019-01-13T00:18:48.310Z,8.13
2019-01-13T00:21:18.607Z,5.13
2019-01-13T00:23:49.280Z,4.60
2019-01-13T00:26:19.787Z,6.23
2019-01-13T00:28:50.172Z,4.77
2019-01-13T00:31:20.590Z,4.30
2019-01-13T00:33:50.885Z,4.97
2019-01-13T00:36:21.525Z,5.37
2019-01-13T00:38:52.099Z,4.47
2019-01-13T00:41:22.548Z,4.80
2019-01-13T00:43:53.361Z,4.83
2019-01-13T00:46:23.780Z,4.93
2019-01-13T00:48:53.985Z,6.57
2019-01-13T00:51:24.443Z,5.83
2019-01-13T00:53:55.095Z,7.17
2019-01-13T00:56:25.550Z,7.50
2019-01-13T00:58:56.043Z,7.43
2019-01-13T01:01:26.932Z,7.37
2019-01-13T01:03:57.214Z,8.33
2019-01-13T01:06:28.243Z,6.27
2019-01-13T01:08:58.624Z,7.60
2019-01-13T01:11:29.161Z,6.50
2019-01-13T01:13:59.548Z,6.57
2019-01-13T01:16:29.853Z,7.23
2019-01-13T01:19:00.156Z,7.47
2019-01-13T01:21:31.108Z,6.33
2019-01-13T01:24:01.503Z,6.87
2019-01-13T01:26:31.797Z,6.50
2019-01-13T01:29:02.610Z,6.80
2019-01-13T01:31:33.095Z,6.10
2019-01-13T01:34:03.424Z,5.97
2019-01-13T01:36:34.020Z,6.70
2019-01-13T01:39:07.071Z,5.93
2019-01-13T01:41:37.821Z,6.80
2019-01-13T01:44:08.136Z,7.10
2019-01-13T01:46:38.407Z,7.00
2019-01-13T01:49:09.061Z,7.63
2019-01-13T01:51:39.624Z,6.57
2019-01-13T01:54:09.953Z,7.20
2019-01-13T01:56:40.595Z,5.83
2019-01-13T01:59:11.371Z,6.67
2019-01-13T02:01:41.743Z,8.03
2019-01-13T02:04:12.741Z,7.10
2019-01-13T02:06:43.538Z,7.43
2019-01-13T02:09:14.787Z,7.73
2019-01-13T02:11:45.348Z,8.63
2019-01-13T02:14:15.639Z,8.20
2019-01-13T02:16:46.016Z,9.33
2019-01-13T02:19:16.747Z,7.80
2019-01-13T02:21:47.055Z,7.50
2019-01-13T02:24:17.541Z,7.80
2019-01-13T02:26:48.180Z,8.10
2019-01-13T02:29:18.652Z,8.03
2019-01-13T02:31:49.138Z,8.17
2019-01-13T02:34:19.958Z,7.43
2019-01-13T02:36:50.360Z,8.63
2019-01-13T02:39:20.917Z,7.57
2019-01-13T02:41:51.565Z,9.30
2019-01-13T02:44:22.363Z,8.90
2019-01-13T02:46:52.744Z,10.10
2019-01-13T02:49:23.064Z,10.67
2019-01-13T02:51:53.639Z,11.77
2019-01-13T02:54:24.371Z,12.13
2019-01-13T02:56:54.695Z,8.83
2019-01-13T02:59:25.169Z,8.40
2019-01-13T03:01:55.809Z,7.90
2019-01-13T03:04:26.135Z,8.63
2019-01-13T03:06:57.669Z,8.30
2019-01-13T03:09:28.520Z,9.73
2019-01-13T03:11:58.913Z,7.70
2019-01-13T03:14:29.180Z,5.67
2019-01-13T03:16:59.588Z,5.53
2019-01-13T03:19:30.391Z,4.87
2019-01-13T03:22:00.915Z,3.60
2019-01-13T03:24:31.492Z,4.50
2019-01-13T03:27:02.298Z,4.07
2019-01-13T03:29:32.748Z,4.10
2019-01-13T03:32:03.467Z,3.97
2019-01-13T03:34:34.117Z,4.37
2019-01-13T03:37:04.631Z,5.23
2019-01-13T03:39:34.937Z,4.73
2019-01-13T03:42:05.722Z,4.47
2019-01-13T03:44:36.058Z,4.83
2019-01-13T03:47:06.817Z,4.60
2019-01-13T03:49:37.106Z,4.90
2019-01-13T03:52:07.914Z,4.73
2019-01-13T03:54:38.757Z,4.83
2019-01-13T03:57:09.274Z,5.20
2019-01-13T03:59:39.741Z,4.30
2019-01-13T04:02:10.392Z,5.20
2019-01-13T04:04:40.792Z,4.87
2019-01-13T04:07:11.285Z,5.17
2019-01-13T04:09:42.060Z,4.17
2019-01-13T04:12:12.484Z,5.03
2019-01-13T04:14:42.786Z,4.13
2019-01-13T04:17:14.091Z,4.57
2019-01-13T04:19:44.389Z,5.20
2019-01-13T04:22:15.168Z,4.70
2019-01-13T04:24:45.541Z,4.27
2019-01-13T04:27:15.868Z,4.53
2019-01-13T04:29:46.620Z,4.30
2019-01-13T04:32:17.308Z,5.27
2019-01-13T04:34:47.572Z,5.20
2019-01-13T04:37:18.240Z,4.47
2019-01-13T04:39:48.606Z,4.90
2019-01-13T04:42:18.892Z,5.30
2019-01-13T04:44:49.459Z,4.50
2019-01-13T04:47:20.110Z,4.90
2019-01-13T04:49:50.566Z,7.03
2019-01-13T04:52:21.055Z,5.47
2019-01-13T04:54:51.352Z,5.13
2019-01-13T04:57:22.234Z,5.70
2019-01-13T04:59:52.956Z,6.03
2019-01-13T05:02:23.289Z,5.67
2019-01-13T05:04:54.122Z,5.20
2019-01-13T05:07:24.797Z,5.70
2019-01-13T05:09:55.087Z,5.57
2019-01-13T05:12:25.610Z,5.23
2019-01-13T05:14:56.250Z,5.53
2019-01-13T05:17:26.735Z,5.60
2019-01-13T05:19:57.055Z,5.30
2019-01-13T05:22:27.661Z,5.50
2019-01-13T05:24:57.963Z,5.97
2019-01-13T05:27:28.312Z,7.70
2019-01-13T05:29:59.348Z,10.13
2019-01-13T05:32:29.722Z,8.23
2019-01-13T05:35:00.060Z,7.17
2019-01-13T05:37:30.674Z,9.60
2019-01-13T05:40:01.031Z,14.50
2019-01-13T05:42:31.358Z,8.20
2019-01-13T05:45:01.744Z,7.40
2019-01-13T05:47:32.613Z,8.50
2019-01-13T05:50:03.026Z,25.53
2019-01-13T05:52:33.560Z,29.33
2019-01-13T05:55:04.076Z,29.47
2019-01-13T05:57:34.568Z,10.30
2019-01-13T06:00:07.196Z,28.83
2019-01-13T06:02:37.507Z,31.33
2019-01-13T06:05:08.735Z,15.13
2019-01-13T06:07:39.344Z,15.37
2019-01-13T06:10:11.312Z,12.10
2019-01-13T06:12:41.658Z,12.03
2019-01-13T06:15:15.389Z,9.87
2019-01-13T06:17:45.693Z,15.67
2019-01-13T06:20:18.078Z,10.87
2019-01-13T06:22:48.742Z,15.10
2019-01-13T06:25:19.353Z,18.50
2019-01-13T06:27:50.101Z,8.70
2019-01-13T06:30:22.669Z,14.70
2019-01-13T06:32:53.112Z,17.07
2019-01-13T06:35:23.621Z,13.13
2019-01-13T06:37:57.063Z,10.43
2019-01-13T06:40:27.373Z,12.27
2019-01-13T06:42:57.769Z,16.13
2019-01-13T06:45:28.578Z,8.97
2019-01-13T06:47:58.891Z,10.83
2019-01-13T06:50:30.457Z,13.00
2019-01-13T06:53:01.208Z,8.50
2019-01-13T06:55:32.016Z,9.20
2019-01-13T06:58:02.753Z,13.93
2019-01-13T07:00:34.325Z,12.90
2019-01-13T07:03:05.403Z,15.47
2019-01-13T07:05:35.966Z,16.40
2019-01-13T07:08:06.361Z,8.87
2019-01-13T07:10:36.906Z,11.03
2019-01-13T07:13:07.251Z,9.83
2019-01-13T07:15:37.549Z,9.50
2019-01-13T07:18:08.118Z,10.37
2019-01-13T07:20:38.725Z,9.50
2019-01-13T07:23:09.073Z,9.27
2019-01-13T07:25:39.594Z,11.10
2019-01-13T07:28:10.009Z,13.70
2019-01-13T07:30:40.384Z,10.00
2019-01-13T07:33:11.151Z,21.00
2019-01-13T07:35:41.667Z,23.20
2019-01-13T07:38:11.968Z,22.03
2019-01-13T07:40:42.402Z,29.63
2019-01-13T07:43:13.068Z,29.60
2019-01-13T07:45:43.394Z,27.20
2019-01-13T07:48:15.716Z,26.20
2019-01-13T07:50:46.211Z,25.57
2019-01-13T07:53:16.504Z,26.73
2019-01-13T07:55:46.833Z,32.17
2019-01-13T07:58:17.649Z,32.77
2019-01-13T08:00:48.172Z,26.40
2019-01-13T08:03:18.588Z,25.07
2019-01-13T08:05:48.867Z,29.13
2019-01-13T08:08:19.203Z,30.50
2019-01-13T08:10:49.596Z,25.03
2019-01-13T08:13:19.944Z,23.63
2019-01-13T08:15:50.255Z,23.57
2019-01-13T08:18:21.039Z,23.93
2019-01-13T08:20:51.427Z,23.83
2019-01-13T08:23:21.816Z,27.77
2019-01-13T08:25:52.540Z,29.23
2019-01-13T08:28:23.210Z,32.73
2019-01-13T08:30:53.690Z,33.20
2019-01-13T08:33:24.293Z,35.33
2019-01-13T08:35:54.607Z,35.47
2019-01-13T08:38:25.029Z,35.17
2019-01-13T08:40:55.362Z,37.47
2019-01-13T08:43:25.829Z,28.77
2019-01-13T08:45:56.434Z,25.40
2019-01-13T08:48:27.237Z,27.30
2019-01-13T08:50:57.571Z,26.97
2019-01-13T08:53:28.251Z,28.20
2019-01-13T08:55:59.006Z,28.70
2019-01-13T08:58:29.481Z,30.50
2019-01-13T09:01:00.071Z,29.57
2019-01-13T09:03:30.898Z,30.37
2019-01-13T09:06:01.508Z,30.53
2019-01-13T09:08:32.265Z,30.73
2019-01-13T09:11:02.787Z,32.30
2019-01-13T09:13:33.436Z,30.17
2019-01-13T09:16:04.287Z,31.73
2019-01-13T09:18:34.833Z,26.40
2019-01-13T09:21:05.546Z,27.73
2019-01-13T09:23:36.193Z,27.53
2019-01-13T09:26:06.511Z,27.57
2019-01-13T09:28:37.253Z,28.70
2019-01-13T09:31:07.902Z,28.93
2019-01-13T09:33:38.346Z,27.77
2019-01-13T09:36:08.938Z,28.07
2019-01-13T09:38:39.753Z,26.83
2019-01-13T09:41:10.220Z,25.67
2019-01-13T09:43:41.879Z,27.07
2019-01-13T09:46:12.811Z,26.63
2019-01-13T09:48:43.152Z,27.00
2019-01-13T09:51:13.890Z,25.00
2019-01-13T09:53:44.351Z,24.57
2019-01-13T09:56:14.746Z,22.93
2019-01-13T09:58:45.652Z,23.70
2019-01-13T10:01:16.261Z,23.83
2019-01-13T10:03:46.585Z,25.70
2019-01-13T10:06:17.370Z,22.53
2019-01-13T10:08:48.133Z,22.40
2019-01-13T10:11:18.546Z,25.30
2019-01-13T10:13:49.004Z,24.87
2019-01-13T10:16:19.314Z,26.53
2019-01-13T10:18:50.038Z,28.13
2019-01-13T10:21:20.411Z,39.33
2019-01-13T10:23:50.754Z,44.23
2019-01-13T10:26:22.585Z,40.03
2019-01-13T10:28:53.362Z,41.07
2019-01-13T10:31:24.080Z,40.90
2019-01-13T10:33:54.955Z,37.33
2019-01-13T10:36:25.830Z,40.73
2019-01-13T10:38:56.134Z,32.37
2019-01-13T10:41:27.674Z,24.50
2019-01-13T10:43:58.304Z,23.67
2019-01-13T10:46:29.050Z,23.10
2019-01-13T10:48:59.529Z,21.63
2019-01-13T10:51:29.850Z,23.93
2019-01-13T10:54:00.214Z,23.03
2019-01-13T10:56:30.750Z,23.27
2019-01-13T10:59:01.081Z,23.43
2019-01-13T11:01:31.516Z,24.13
2019-01-13T11:04:02.172Z,25.23
2019-01-13T11:06:32.521Z,23.53
2019-01-13T11:09:04.495Z,25.93
2019-01-13T11:11:35.217Z,28.43
2019-01-13T11:14:06.585Z,31.33
2019-01-13T11:16:37.263Z,28.17
2019-01-13T11:19:07.572Z,29.53
2019-01-13T11:21:37.931Z,30.50
2019-01-13T11:24:08.719Z,29.47
2019-01-13T11:26:39.215Z,29.53
2019-01-13T11:29:09.850Z,32.10
2019-01-13T11:31:40.621Z,27.10
2019-01-13T11:34:11.110Z,24.23
2019-01-13T11:36:41.393Z,23.83
2019-01-13T11:39:12.219Z,23.97
2019-01-13T11:41:42.671Z,25.03
2019-01-13T11:44:13.417Z,25.30
2019-01-13T11:46:44.098Z,22.83
2019-01-13T11:49:14.846Z,24.00
2019-01-13T11:51:45.167Z,24.93
2019-01-13T11:54:15.696Z,23.47
2019-01-13T11:56:46.511Z,24.37
2019-01-13T11:59:16.815Z,24.73
2019-01-13T12:01:47.288Z,22.13
2019-01-13T12:04:18.025Z,23.37
2019-01-13T12:06:48.368Z,25.87
2019-01-13T12:09:19.646Z,25.83
2019-01-13T12:11:50.467Z,26.47
2019-01-13T12:14:20.824Z,28.10
2019-01-13T12:16:51.336Z,26.10
2019-01-13T12:19:22.003Z,27.47
2019-01-13T12:21:52.504Z,28.40
2019-01-13T12:24:23.101Z,31.00
2019-01-13T12:26:53.530Z,22.53
2019-01-13T12:29:24.119Z,17.17
2019-01-13T12:31:54.889Z,18.63
2019-01-13T12:34:25.173Z,16.97
2019-01-13T12:36:55.500Z,18.37
2019-01-13T12:39:25.956Z,18.83
2019-01-13T12:41:56.470Z,21.33
2019-01-13T12:44:26.853Z,18.67
2019-01-13T12:46:57.438Z,21.27
2019-01-13T12:49:28.048Z,21.47
2019-01-13T12:51:58.613Z,20.80
2019-01-13T12:54:29.043Z,19.00
2019-01-13T12:56:59.405Z,16.83
2019-01-13T12:59:30.235Z,17.10
2019-01-13T13:02:00.803Z,19.17
2019-01-13T13:04:31.103Z,18.07
2019-01-13T13:07:02.054Z,20.70
2019-01-13T13:09:32.835Z,20.33
2019-01-13T13:12:03.133Z,19.73
2019-01-13T13:14:33.856Z,21.30
2019-01-13T13:17:04.323Z,21.33
2019-01-13T13:19:34.636Z,23.03
2019-01-13T13:22:05.107Z,22.67
2019-01-13T13:24:35.510Z,25.03
2019-01-13T13:27:06.605Z,26.00
2019-01-13T13:29:37.274Z,26.00
2019-01-13T13:32:07.611Z,24.70
2019-01-13T13:34:38.324Z,24.90
2019-01-13T13:37:09.237Z,24.73
2019-01-13T13:39:39.528Z,28.07
2019-01-13T13:42:10.062Z,28.47
2019-01-13T13:44:40.845Z,28.20
2019-01-13T13:47:11.383Z,27.30
2019-01-13T13:49:41.719Z,30.00
2019-01-13T13:52:12.163Z,29.67
2019-01-13T13:54:42.574Z,30.90
2019-01-13T13:57:13.346Z,36.50
2019-01-13T13:59:43.630Z,34.07
2019-01-13T14:02:14.420Z,31.97
2019-01-13T14:04:45.199Z,31.93
2019-01-13T14:07:15.495Z,29.13
2019-01-13T14:09:45.815Z,31.00
2019-01-13T14:12:16.478Z,31.60
2019-01-13T14:14:46.831Z,29.70
2019-01-13T14:17:17.390Z,24.17
2019-01-13T14:19:48.126Z,22.97
2019-01-13T14:22:18.648Z,25.93
2019-01-13T14:24:49.305Z,26.97
2019-01-13T14:27:19.954Z,28.27
2019-01-13T14:29:50.306Z,28.20
2019-01-13T14:32:21.085Z,23.00
2019-01-13T14:34:51.442Z,19.63
2019-01-13T14:37:21.767Z,18.77
2019-01-13T14:39:52.547Z,20.47
2019-01-13T14:42:23.039Z,19.20
2019-01-13T14:44:53.375Z,23.13
2019-01-13T14:47:23.974Z,24.53
2019-01-13T14:49:55.322Z,24.70
2019-01-13T14:52:25.647Z,22.57
2019-01-13T14:54:56.373Z,24.57
2019-01-13T14:57:27.148Z,24.50
2019-01-13T14:59:57.527Z,26.37
2019-01-13T15:02:28.098Z,27.73
2019-01-13T15:04:58.518Z,27.43
2019-01-13T15:07:29.262Z,27.70
2019-01-13T15:09:59.943Z,26.33
2019-01-13T15:12:30.321Z,27.53
2019-01-13T15:15:00.903Z,28.20
2019-01-13T15:17:31.279Z,26.17
2019-01-13T15:20:01.784Z,24.27
2019-01-13T15:22:32.195Z,26.17
2019-01-13T15:25:03.016Z,28.87
2019-01-13T15:27:33.461Z,32.73
2019-01-13T15:30:05.717Z,34.43
2019-01-13T15:32:36.182Z,39.10
2019-01-13T15:35:07.144Z,36.87
2019-01-13T15:37:37.766Z,41.57
2019-01-13T15:40:09.914Z,39.67
2019-01-13T15:42:40.478Z,43.97
2019-01-13T15:45:12.140Z,41.77
2019-01-13T15:47:42.518Z,38.83
2019-01-13T15:50:18.640Z,38.17
2019-01-13T15:52:49.347Z,36.63
2019-01-13T15:55:19.884Z,34.80
2019-01-13T15:57:50.593Z,34.70
2019-01-13T16:00:23.329Z,30.83
2019-01-13T16:02:53.767Z,30.20
2019-01-13T16:05:24.131Z,34.43
2019-01-13T16:07:55.068Z,50.93
2019-01-13T16:10:27.064Z,48.13
2019-01-13T16:12:57.359Z,52.37
2019-01-13T16:15:33.924Z,54.53
2019-01-13T16:17:59.892Z,49.17
2019-01-13T16:20:43.670Z,44.63
2019-01-13T16:23:14.341Z,46.27
2019-01-13T16:25:45.165Z,41.37
2019-01-13T16:28:15.497Z,43.27
2019-01-13T16:30:46.248Z,55.73
2019-01-13T16:33:16.786Z,44.13
2019-01-13T16:35:47.191Z,41.50
2019-01-13T16:38:17.889Z,37.13
2019-01-13T16:40:48.275Z,32.27
2019-01-13T16:43:18.658Z,34.30
2019-01-13T16:45:49.222Z,36.03
2019-01-13T16:48:19.569Z,34.37
2019-01-13T16:50:50.234Z,36.47
2019-01-13T16:53:20.982Z,38.47
2019-01-13T16:55:51.826Z,40.17
2019-01-13T16:58:22.274Z,42.03
2019-01-13T17:00:53.089Z,44.13
2019-01-13T17:03:23.529Z,43.27
2019-01-13T17:05:53.875Z,49.33
2019-01-13T17:08:24.610Z,74.53
2019-01-13T17:10:55.197Z,59.70
2019-01-13T17:13:25.873Z,59.20
2019-01-13T17:15:56.193Z,52.00
2019-01-13T17:18:26.483Z,60.10
2019-01-13T17:20:57.338Z,69.10
2019-01-13T17:23:27.850Z,67.97
2019-01-13T17:25:58.278Z,78.87
2019-01-13T17:28:28.959Z,81.50
2019-01-13T17:30:59.875Z,68.47
2019-01-13T17:33:30.336Z,71.43
2019-01-13T17:36:01.151Z,75.37
2019-01-13T17:38:31.786Z,68.87
2019-01-13T17:41:02.307Z,70.97
2019-01-13T17:43:32.740Z,80.57
2019-01-13T17:46:03.107Z,82.63
2019-01-13T17:48:33.801Z,68.87
2019-01-13T17:51:04.718Z,64.80
2019-01-13T17:53:35.023Z,63.03
2019-01-13T17:56:05.752Z,58.17
2019-01-13T17:58:36.534Z,50.27
2019-01-13T18:01:20.284Z,50.27
2019-01-13T18:03:50.937Z,49.70
2019-01-13T18:06:21.591Z,53.97
2019-01-13T18:08:51.894Z,58.27
2019-01-13T18:11:22.498Z,60.17
2019-01-13T18:13:52.980Z,61.00
2019-01-13T18:16:23.775Z,65.53
2019-01-13T18:18:54.413Z,70.57
2019-01-13T18:21:24.778Z,70.00
2019-01-13T18:23:55.156Z,50.57
2019-01-13T18:26:25.847Z,21.83
2019-01-13T18:28:56.159Z,23.67
2019-01-13T18:31:27.642Z,17.93
2019-01-13T18:33:58.276Z,13.17
2019-01-13T18:36:28.602Z,12.37
2019-01-13T18:38:58.916Z,14.67
2019-01-13T18:41:29.396Z,10.37
2019-01-13T18:43:59.704Z,12.47
2019-01-13T18:46:30.198Z,9.30
2019-01-13T18:49:00.538Z,9.37
2019-01-13T18:51:30.892Z,9.43
2019-01-13T18:54:01.493Z,7.60
2019-01-13T18:56:32.205Z,11.83
2019-01-13T18:59:02.509Z,13.00
2019-01-13T19:01:33.395Z,12.33
2019-01-13T19:04:03.881Z,15.03
2019-01-13T19:06:34.236Z,11.17
2019-01-13T19:09:08.591Z,9.30
2019-01-13T19:11:42.463Z,8.60
2019-01-13T19:14:39.942Z,11.10
2019-01-13T19:17:14.972Z,16.53
2019-01-13T19:19:59.481Z,12.27
2019-01-13T19:22:31.760Z,8.73
2019-01-13T19:25:14.333Z,12.13
2019-01-13T19:27:45.218Z,7.77
2019-01-13T19:30:17.613Z,9.10
2019-01-13T19:32:48.310Z,10.77
2019-01-13T19:35:18.822Z,11.00
2019-01-13T19:37:49.594Z,10.87
2019-01-13T19:40:20.377Z,11.43
2019-01-13T19:42:50.762Z,10.47
2019-01-13T19:45:22.307Z,9.83
2019-01-13T19:47:53.173Z,10.13
2019-01-13T19:50:26.278Z,10.20
2019-01-13T19:52:56.873Z,8.33
2019-01-13T19:55:27.212Z,9.83
2019-01-13T19:57:58.171Z,10.20
2019-01-13T20:00:31.629Z,10.97
2019-01-13T20:03:02.157Z,7.57
2019-01-13T20:05:32.520Z,8.60
2019-01-13T20:08:03.456Z,8.47
2019-01-13T20:10:33.816Z,8.33
2019-01-13T20:13:04.675Z,9.83
2019-01-13T20:15:35.289Z,14.97
2019-01-13T20:18:05.612Z,27.60
2019-01-13T20:20:35.995Z,28.90
2019-01-13T20:23:06.934Z,24.97
2019-01-13T20:25:38.492Z,28.20
2019-01-13T20:28:09.094Z,27.13
2019-01-13T20:30:39.783Z,28.30
2019-01-13T20:33:10.413Z,27.17
2019-01-13T20:35:40.698Z,29.60
2019-01-13T20:38:11.407Z,30.50
2019-01-13T20:40:41.826Z,30.37
2019-01-13T20:43:12.297Z,30.27
2019-01-13T20:45:43.484Z,48.23
2019-01-13T20:48:14.000Z,33.97
2019-01-13T20:50:44.435Z,30.53
2019-01-13T20:53:15.046Z,33.37
2019-01-13T20:55:45.661Z,31.33
2019-01-13T20:58:16.451Z,32.60
2019-01-13T21:00:47.053Z,33.07
2019-01-13T21:03:17.375Z,35.37
2019-01-13T21:05:48.176Z,37.67
2019-01-13T21:08:18.735Z,56.23
2019-01-13T21:10:49.149Z,47.00
2019-01-13T21:13:19.592Z,32.97
2019-01-13T21:15:50.429Z,33.93
2019-01-13T21:18:20.727Z,43.13
2019-01-13T21:20:51.246Z,41.20
2019-01-13T21:23:21.859Z,39.67
2019-01-13T21:25:53.440Z,42.07
2019-01-13T21:28:24.205Z,36.53
2019-01-13T21:30:54.506Z,39.67
2019-01-13T21:33:24.968Z,36.03
2019-01-13T21:35:55.647Z,37.20
2019-01-13T21:38:26.003Z,31.73
2019-01-13T21:40:56.509Z,33.20
2019-01-13T21:43:27.462Z,39.97
2019-01-13T21:45:58.030Z,42.83
2019-01-13T21:48:28.340Z,42.83
2019-01-13T21:50:59.018Z,44.00
2019-01-13T21:53:29.643Z,44.93
2019-01-13T21:55:59.944Z,45.83
2019-01-13T21:58:30.801Z,45.47
2019-01-13T22:01:01.104Z,46.43
2019-01-13T22:03:32.753Z,47.07
2019-01-13T22:06:03.132Z,39.03
2019-01-13T22:08:33.423Z,41.23
2019-01-13T22:11:04.811Z,45.17
2019-01-13T22:13:35.510Z,45.03
2019-01-13T22:16:05.982Z,45.83
2019-01-13T22:18:36.511Z,43.60
2019-01-13T22:21:07.480Z,44.57
2019-01-13T22:23:37.819Z,43.87
2019-01-13T22:26:08.334Z,43.60
2019-01-13T22:28:39.032Z,42.43
2019-01-13T22:31:09.433Z,46.03
2019-01-13T22:33:40.079Z,47.70
2019-01-13T22:36:10.358Z,46.47
2019-01-13T22:38:40.749Z,44.60
2019-01-13T22:41:11.556Z,44.80
2019-01-13T22:43:41.878Z,48.03
2019-01-13T22:46:12.363Z,51.13
2019-01-13T22:48:44.186Z,59.90
2019-01-13T22:51:14.494Z,56.57
2019-01-13T22:53:44.812Z,54.47
2019-01-13T22:56:16.504Z,53.33
2019-01-13T22:58:46.851Z,52.70
2019-01-13T23:01:35.710Z,53.30
2019-01-13T23:04:08.840Z,50.23
2019-01-13T23:06:39.217Z,53.40
2019-01-13T23:09:10.752Z,49.17
2019-01-13T23:11:41.819Z,52.07
2019-01-13T23:14:14.054Z,58.53
2019-01-13T23:16:44.798Z,52.50
2019-01-13T23:19:15.118Z,54.50
2019-01-13T23:21:45.772Z,53.77
2019-01-13T23:24:16.557Z,49.23
2019-01-13T23:26:47.030Z,49.90
2019-01-13T23:29:17.670Z,52.53
2019-01-13T23:31:48.343Z,61.03
2019-01-13T23:34:18.702Z,53.17
2019-01-13T23:36:49.085Z,51.47
2019-01-13T23:39:19.402Z,54.07
2019-01-13T23:41:49.796Z,51.27
2019-01-13T23:44:20.537Z,57.80
2019-01-13T23:46:51.066Z,55.43
2019-01-13T23:49:21.364Z,51.77
2019-01-13T23:51:52.162Z,50.93
2019-01-13T23:54:22.853Z,55.00
2019-01-13T23:56:53.206Z,55.10
2019-01-13T23:59:23.908Z,53.00
